createdAt,value
2023-02-09T00:00:09.031Z,-4.70
2023-02-09T00:02:44.823Z,-4.70
2023-02-09T00:05:15.025Z,-4.70
2023-02-09T00:07:44.776Z,-4.60
2023-02-09T00:10:13.396Z,-4.60
2023-02-09T00:12:59.220Z,-4.60
2023-02-09T00:15:27.908Z,-4.60
2023-02-09T00:17:57.110Z,-4.60
2023-02-09T00:20:27.470Z,-4.60
2023-02-09T00:22:56.128Z,-4.60
2023-02-09T00:25:24.862Z,-4.60
2023-02-09T00:27:53.555Z,-4.60
2023-02-09T00:30:22.250Z,-4.60
2023-02-09T00:32:51.088Z,-4.60
2023-02-09T00:35:20.613Z,-4.60
2023-02-09T00:37:50.848Z,-4.60
2023-02-09T00:40:19.729Z,-4.70
2023-02-09T00:42:48.338Z,-4.70
2023-02-09T00:45:18.961Z,-4.70
2023-02-09T00:47:47.523Z,-4.70
2023-02-09T00:50:16.508Z,-4.70
2023-02-09T00:52:45.301Z,-4.70
2023-02-09T00:55:15.308Z,-4.70
2023-02-09T00:57:44.089Z,-4.80
2023-02-09T01:00:14.803Z,-4.80
2023-02-09T01:02:43.798Z,-4.80
2023-02-09T01:05:12.549Z,-4.80
2023-02-09T01:07:41.209Z,-4.90
2023-02-09T01:10:10.568Z,-4.90
2023-02-09T01:12:42.312Z,-5.00
2023-02-09T01:15:12.273Z,-5.10
2023-02-09T01:17:41.863Z,-5.20
2023-02-09T01:20:15.014Z,-5.20
2023-02-09T01:22:43.942Z,-5.10
2023-02-09T01:25:12.960Z,-5.10
2023-02-09T01:27:43.034Z,-5.00
2023-02-09T01:30:12.672Z,-4.90
2023-02-09T01:32:41.513Z,-4.90
2023-02-09T01:35:10.899Z,-4.90
2023-02-09T01:37:40.493Z,-5.00
2023-02-09T01:40:11.106Z,-5.10
2023-02-09T01:42:44.502Z,-5.10
2023-02-09T01:45:26.905Z,-5.30
2023-02-09T01:47:59.395Z,-5.30
2023-02-09T01:50:30.832Z,-5.40
2023-02-09T01:52:59.784Z,-5.50
2023-02-09T01:55:33.937Z,-5.50
2023-02-09T01:58:09.015Z,-5.60
2023-02-09T02:00:37.853Z,-5.60
2023-02-09T02:03:10.857Z,-5.60
2023-02-09T02:05:43.785Z,-5.70
2023-02-09T02:08:18.054Z,-5.60
2023-02-09T02:10:47.206Z,-5.50
2023-02-09T02:13:17.748Z,-5.40
2023-02-09T02:15:56.696Z,-5.30
2023-02-09T02:18:39.190Z,-5.20
2023-02-09T02:21:52.593Z,-5.20
2023-02-09T02:24:41.676Z,-5.20
2023-02-09T02:27:17.672Z,-5.20
2023-02-09T02:30:20.199Z,-5.00
2023-02-09T02:33:01.887Z,-4.90
2023-02-09T02:35:36.925Z,-4.90
2023-02-09T02:38:18.904Z,-5.00
2023-02-09T02:40:56.410Z,-5.00
2023-02-09T02:43:35.904Z,-5.00
2023-02-09T02:46:09.997Z,-5.10
2023-02-09T02:48:44.207Z,-5.10
2023-02-09T02:51:18.464Z,-5.20
2023-02-09T02:53:52.805Z,-5.20
2023-02-09T02:56:25.497Z,-5.30
2023-02-09T02:58:58.380Z,-5.30
2023-02-09T03:01:31.640Z,-5.40
2023-02-09T03:04:04.187Z,-5.50
2023-02-09T03:06:34.232Z,-5.50
2023-02-09T03:09:03.514Z,-5.40
2023-02-09T03:11:36.121Z,-5.40
2023-02-09T03:14:20.561Z,-5.30
2023-02-09T03:16:53.080Z,-5.30
2023-02-09T03:19:34.516Z,-5.20
2023-02-09T03:22:07.843Z,-5.20
2023-02-09T03:24:47.971Z,-5.20
2023-02-09T03:27:20.701Z,-5.20
2023-02-09T03:29:52.008Z,-5.20
2023-02-09T03:32:21.946Z,-5.30
2023-02-09T03:34:52.965Z,-5.40
2023-02-09T03:37:21.948Z,-5.60
2023-02-09T03:39:50.729Z,-5.70
2023-02-09T03:42:19.453Z,-5.70
2023-02-09T03:44:48.074Z,-5.70
2023-02-09T03:47:16.656Z,-5.70
2023-02-09T03:49:45.699Z,-5.80
2023-02-09T03:52:18.033Z,-5.90
2023-02-09T03:54:47.966Z,-6.00
2023-02-09T03:57:16.555Z,-6.10
2023-02-09T03:59:45.187Z,-6.10
2023-02-09T04:02:13.777Z,-6.20
2023-02-09T04:04:42.449Z,-6.30
2023-02-09T04:07:12.182Z,-6.40
2023-02-09T04:09:42.332Z,-6.40
2023-02-09T04:12:10.903Z,-6.50
2023-02-09T04:14:39.561Z,-6.60
2023-02-09T04:17:08.244Z,-6.60
2023-02-09T04:19:36.988Z,-6.70
2023-02-09T04:22:05.757Z,-6.70
2023-02-09T04:24:36.460Z,-6.80
2023-02-09T04:27:06.759Z,-6.80
2023-02-09T04:29:35.544Z,-6.80
2023-02-09T04:32:04.312Z,-6.70
2023-02-09T04:34:36.058Z,-6.60
2023-02-09T04:37:04.653Z,-6.60
2023-02-09T04:39:33.241Z,-6.70
2023-02-09T04:42:01.856Z,-6.70
2023-02-09T04:44:32.168Z,-6.80
2023-02-09T04:47:01.037Z,-6.80
2023-02-09T04:49:29.791Z,-6.80
2023-02-09T04:52:50.666Z,-6.70
2023-02-09T04:55:19.433Z,-6.70
2023-02-09T04:58:05.491Z,-6.70
2023-02-09T05:00:35.709Z,-6.70
2023-02-09T05:03:04.580Z,-6.70
2023-02-09T05:06:11.997Z,-6.70
2023-02-09T05:08:40.679Z,-6.80
2023-02-09T05:11:09.752Z,-6.80
2023-02-09T05:13:38.932Z,-6.90
2023-02-09T05:16:08.468Z,-6.90
2023-02-09T05:18:37.940Z,-7.00
2023-02-09T05:21:07.269Z,-7.00
2023-02-09T05:23:37.529Z,-7.00
2023-02-09T05:26:06.479Z,-7.00
2023-02-09T05:28:35.347Z,-7.10
2023-02-09T05:31:04.212Z,-7.10
2023-02-09T05:33:33.091Z,-7.10
2023-02-09T05:36:01.905Z,-7.20
2023-02-09T05:38:30.571Z,-7.20
2023-02-09T05:41:05.584Z,-7.20
2023-02-09T05:43:34.187Z,-7.20
2023-02-09T05:46:02.886Z,-7.20
2023-02-09T05:49:02.238Z,-7.30
2023-02-09T05:51:30.839Z,-7.30
2023-02-09T05:53:59.469Z,-7.30
2023-02-09T05:56:30.184Z,-7.30
2023-02-09T05:58:58.991Z,-7.30
2023-02-09T06:01:27.716Z,-7.20
2023-02-09T06:03:56.306Z,-7.20
2023-02-09T06:06:24.891Z,-7.20
2023-02-09T06:08:53.678Z,-7.10
2023-02-09T06:11:22.338Z,-7.00
2023-02-09T06:13:52.993Z,-7.00
2023-02-09T06:16:21.649Z,-6.90
2023-02-09T06:18:50.456Z,-6.80
2023-02-09T06:21:19.424Z,-6.80
2023-02-09T06:23:48.246Z,-6.80
2023-02-09T06:26:19.066Z,-6.80
2023-02-09T06:28:48.013Z,-6.80
2023-02-09T06:31:18.446Z,-6.70
2023-02-09T06:33:47.186Z,-6.70
2023-02-09T06:36:15.949Z,-6.70
2023-02-09T06:38:44.662Z,-6.70
2023-02-09T06:41:13.598Z,-6.60
2023-02-09T06:43:42.421Z,-6.60
2023-02-09T06:46:13.328Z,-6.50
2023-02-09T06:48:43.618Z,-6.50
2023-02-09T06:51:13.989Z,-6.50
2023-02-09T06:53:58.889Z,-6.50
2023-02-09T06:56:28.156Z,-6.50
2023-02-09T06:58:57.398Z,-6.50
2023-02-09T07:01:26.075Z,-6.50
2023-02-09T07:03:56.410Z,-6.50
2023-02-09T07:06:25.537Z,-6.40
2023-02-09T07:08:54.396Z,-6.40
2023-02-09T07:11:23.298Z,-6.30
2023-02-09T07:13:52.057Z,-6.10
2023-02-09T07:16:21.044Z,-6.00
2023-02-09T07:18:49.859Z,-5.90
2023-02-09T07:21:21.585Z,-5.90
2023-02-09T07:23:52.933Z,-5.90
2023-02-09T07:26:21.735Z,-5.80
2023-02-09T07:28:50.479Z,-5.80
2023-02-09T07:31:19.921Z,-5.70
2023-02-09T07:33:48.865Z,-5.60
2023-02-09T07:36:20.116Z,-5.50
2023-02-09T07:38:49.293Z,-5.40
2023-02-09T07:41:20.812Z,-5.30
2023-02-09T07:43:50.098Z,-5.20
2023-02-09T07:46:21.279Z,-5.10
2023-02-09T07:48:51.937Z,-5.00
2023-02-09T07:51:25.571Z,-4.90
2023-02-09T07:53:54.792Z,-4.80
2023-02-09T07:56:24.117Z,-4.60
2023-02-09T07:58:53.661Z,-4.50
2023-02-09T08:01:23.371Z,-4.40
2023-02-09T08:03:52.685Z,-4.30
2023-02-09T08:06:40.977Z,-4.10
2023-02-09T08:09:11.939Z,-4.00
2023-02-09T08:11:46.040Z,-3.90
2023-02-09T08:14:19.694Z,-3.70
2023-02-09T08:16:50.003Z,-3.60
2023-02-09T08:19:23.473Z,-3.40
2023-02-09T08:21:54.125Z,-3.30
2023-02-09T08:24:23.414Z,-3.20
2023-02-09T08:26:52.286Z,-3.00
2023-02-09T08:29:21.384Z,-2.90
2023-02-09T08:31:50.336Z,-2.80
2023-02-09T08:34:19.302Z,-2.80
2023-02-09T08:36:48.135Z,-2.60
2023-02-09T08:39:18.280Z,-2.50
2023-02-09T08:41:47.051Z,-2.40
2023-02-09T08:44:17.724Z,-2.30
2023-02-09T08:46:46.721Z,-2.20
2023-02-09T08:49:16.878Z,-2.00
2023-02-09T08:51:45.824Z,-1.80
2023-02-09T08:54:14.717Z,-1.70
2023-02-09T08:56:45.000Z,-1.50
2023-02-09T08:59:14.620Z,-1.40
2023-02-09T09:01:44.221Z,-1.20
2023-02-09T09:04:14.366Z,-1.10
2023-02-09T09:06:43.995Z,-0.90
2023-02-09T09:09:13.263Z,-0.70
2023-02-09T09:11:45.726Z,-0.60
2023-02-09T09:14:20.664Z,-0.50
2023-02-09T09:16:53.011Z,-0.30
2023-02-09T09:19:23.356Z,-0.20
2023-02-09T09:21:52.611Z,-0.20
2023-02-09T09:24:23.568Z,-0.10
2023-02-09T09:26:52.925Z,-0.10
2023-02-09T09:29:27.263Z,-0.20
2023-02-09T09:31:59.444Z,-0.20
2023-02-09T09:34:32.851Z,-0.20
2023-02-09T09:37:07.158Z,0.00
2023-02-09T09:39:36.431Z,0.10
2023-02-09T09:42:06.520Z,0.20
2023-02-09T09:44:45.604Z,0.20
2023-02-09T09:47:21.948Z,0.30
2023-02-09T09:49:51.491Z,0.30
2023-02-09T09:52:27.287Z,0.40
2023-02-09T09:54:56.446Z,0.40
2023-02-09T09:57:29.045Z,0.50
2023-02-09T10:00:03.671Z,0.60
2023-02-09T10:02:34.927Z,0.70
2023-02-09T10:05:12.919Z,0.80
2023-02-09T10:07:45.834Z,0.90
2023-02-09T10:10:38.346Z,1.00
2023-02-09T10:13:16.245Z,1.10
2023-02-09T10:15:49.517Z,1.10
2023-02-09T10:18:21.413Z,1.20
2023-02-09T10:20:52.070Z,1.40
2023-02-09T10:23:25.177Z,1.50
2023-02-09T10:26:01.034Z,1.60
2023-02-09T10:28:32.572Z,1.80
2023-02-09T10:31:04.660Z,1.90
2023-02-09T10:33:43.078Z,2.00
2023-02-09T10:36:28.106Z,2.10
2023-02-09T10:39:30.235Z,2.20
2023-02-09T10:42:29.675Z,2.30
2023-02-09T10:45:08.377Z,2.60
2023-02-09T10:47:42.278Z,2.80
2023-02-09T10:50:19.529Z,3.00
2023-02-09T10:53:00.748Z,3.20
2023-02-09T10:55:36.104Z,3.40
2023-02-09T10:58:16.370Z,3.70
2023-02-09T11:00:51.224Z,3.90
2023-02-09T11:03:28.792Z,4.10
2023-02-09T11:06:03.326Z,4.20
2023-02-09T11:08:56.337Z,4.50
2023-02-09T11:11:33.318Z,4.70
2023-02-09T11:14:03.037Z,4.90
2023-02-09T11:16:57.879Z,4.90
2023-02-09T11:19:55.399Z,5.10
2023-02-09T11:22:38.825Z,5.20
2023-02-09T11:25:19.587Z,5.20
2023-02-09T11:27:59.242Z,5.30
2023-02-09T11:30:41.160Z,5.30
2023-02-09T11:33:17.828Z,5.20
2023-02-09T11:35:55.799Z,5.30
2023-02-09T11:38:34.840Z,5.30
2023-02-09T11:41:27.146Z,5.30
2023-02-09T11:45:15.680Z,5.30
2023-02-09T11:47:51.963Z,5.30
2023-02-09T11:50:28.084Z,5.30
2023-02-09T11:53:01.158Z,5.30
2023-02-09T11:55:33.325Z,5.30
2023-02-09T11:58:16.773Z,5.30
2023-02-09T12:01:01.693Z,5.20
2023-02-09T12:03:35.692Z,5.30
2023-02-09T12:06:04.914Z,5.40
2023-02-09T12:08:51.670Z,5.40
2023-02-09T12:11:46.539Z,5.50
2023-02-09T12:14:53.998Z,5.60
2023-02-09T12:17:27.548Z,5.70
2023-02-09T12:20:00.312Z,5.80
2023-02-09T12:22:54.103Z,5.90
2023-02-09T12:25:37.489Z,6.10
2023-02-09T12:28:17.320Z,6.40
2023-02-09T12:31:04.208Z,6.50
2023-02-09T12:33:34.989Z,6.80
2023-02-09T12:36:07.235Z,6.90
2023-02-09T12:39:05.078Z,6.90
2023-02-09T12:42:13.595Z,7.00
2023-02-09T12:44:56.739Z,7.20
2023-02-09T12:47:43.410Z,7.30
2023-02-09T12:50:28.098Z,7.30
2023-02-09T12:53:30.386Z,7.30
2023-02-09T12:56:01.580Z,7.30
2023-02-09T12:58:53.754Z,7.10
2023-02-09T13:01:43.933Z,6.90
2023-02-09T13:04:15.313Z,6.60
2023-02-09T13:06:49.102Z,6.50
2023-02-09T13:09:28.351Z,6.60
2023-02-09T13:12:03.833Z,6.80
2023-02-09T13:14:32.565Z,7.10
2023-02-09T13:17:32.581Z,7.20
2023-02-09T13:20:13.745Z,7.10
2023-02-09T13:22:58.721Z,7.10
2023-02-09T13:25:33.147Z,7.00
2023-02-09T13:28:11.279Z,6.90
2023-02-09T13:30:40.148Z,7.30
2023-02-09T13:33:37.160Z,7.80
2023-02-09T13:36:24.650Z,7.90
2023-02-09T13:38:54.765Z,7.90
2023-02-09T13:41:31.062Z,7.80
2023-02-09T13:44:00.136Z,7.70
2023-02-09T13:46:35.225Z,7.80
2023-02-09T13:49:22.155Z,7.80
2023-02-09T13:52:09.500Z,7.60
2023-02-09T13:54:38.658Z,7.60
2023-02-09T13:57:14.572Z,7.40
2023-02-09T13:59:44.716Z,7.20
2023-02-09T14:02:20.939Z,7.00
2023-02-09T14:04:57.364Z,6.90
2023-02-09T14:07:30.424Z,6.70
2023-02-09T14:10:04.271Z,6.40
2023-02-09T14:12:55.932Z,6.20
2023-02-09T14:15:49.676Z,6.20
2023-02-09T14:18:31.989Z,6.10
2023-02-09T14:21:17.043Z,6.10
2023-02-09T14:23:47.740Z,6.00
2023-02-09T14:26:23.925Z,6.00
2023-02-09T14:28:55.603Z,6.10
2023-02-09T14:31:26.175Z,6.40
2023-02-09T14:33:57.114Z,6.70
2023-02-09T14:36:33.594Z,6.90
2023-02-09T14:39:13.072Z,7.00
2023-02-09T14:41:41.827Z,7.00
2023-02-09T14:44:21.553Z,6.80
2023-02-09T14:46:52.051Z,6.70
2023-02-09T14:49:21.575Z,6.50
2023-02-09T14:51:56.889Z,6.40
2023-02-09T14:54:27.906Z,6.30
2023-02-09T14:56:58.840Z,6.40
2023-02-09T14:59:28.292Z,6.30
2023-02-09T15:01:57.331Z,6.30
2023-02-09T15:04:26.306Z,6.30
2023-02-09T15:07:03.503Z,6.10
2023-02-09T15:09:38.171Z,5.90
2023-02-09T15:12:08.644Z,5.70
2023-02-09T15:14:42.558Z,5.60
2023-02-09T15:17:17.364Z,5.40
2023-02-09T15:19:46.990Z,5.30
2023-02-09T15:22:18.572Z,5.10
2023-02-09T15:24:49.658Z,5.00
2023-02-09T15:27:26.933Z,4.80
2023-02-09T15:29:59.705Z,4.60
2023-02-09T15:32:29.897Z,4.50
2023-02-09T15:34:58.892Z,4.40
2023-02-09T15:37:34.337Z,4.30
2023-02-09T15:40:05.771Z,4.10
2023-02-09T15:42:52.617Z,4.00
2023-02-09T15:45:40.652Z,3.90
2023-02-09T15:48:10.432Z,3.80
2023-02-09T15:50:42.136Z,3.60
2023-02-09T15:53:15.414Z,3.50
2023-02-09T15:55:45.933Z,3.30
2023-02-09T15:58:16.497Z,3.20
2023-02-09T16:00:45.437Z,3.10
2023-02-09T16:03:20.387Z,3.00
2023-02-09T16:05:52.019Z,2.80
2023-02-09T16:08:24.887Z,2.70
2023-02-09T16:10:54.277Z,2.50
2023-02-09T16:13:23.548Z,2.40
2023-02-09T16:15:52.492Z,2.20
2023-02-09T16:18:21.198Z,2.10
2023-02-09T16:20:53.456Z,2.00
2023-02-09T16:23:24.969Z,1.80
2023-02-09T16:25:55.028Z,1.70
2023-02-09T16:28:23.845Z,1.50
2023-02-09T16:30:54.500Z,1.30
2023-02-09T16:33:24.933Z,1.20
2023-02-09T16:35:56.477Z,1.10
2023-02-09T16:38:31.301Z,1.00
2023-02-09T16:41:00.113Z,0.90
2023-02-09T16:43:29.195Z,0.80
2023-02-09T16:46:03.570Z,0.70
2023-02-09T16:48:35.945Z,0.60
2023-02-09T16:51:04.876Z,0.50
2023-02-09T16:53:40.819Z,0.40
2023-02-09T16:56:13.011Z,0.30
2023-02-09T16:58:41.776Z,0.20
2023-02-09T17:01:17.078Z,0.10
2023-02-09T17:03:49.055Z,0.10
2023-02-09T17:06:20.286Z,0.10
2023-02-09T17:08:51.613Z,0.00
2023-02-09T17:11:22.830Z,-0.10
2023-02-09T17:13:51.952Z,-0.20
2023-02-09T17:16:22.791Z,-0.30
2023-02-09T17:18:54.339Z,-0.40
2023-02-09T17:21:24.950Z,-0.50
2023-02-09T17:23:57.501Z,-0.60
2023-02-09T17:26:26.583Z,-0.70
2023-02-09T17:28:55.412Z,-0.70
2023-02-09T17:31:26.237Z,-0.60
2023-02-09T17:33:57.272Z,-0.70
2023-02-09T17:36:28.629Z,-0.80
2023-02-09T17:39:00.519Z,-0.80
2023-02-09T17:41:34.043Z,-0.90
2023-02-09T17:44:22.357Z,-1.00
2023-02-09T17:46:57.696Z,-1.10
2023-02-09T17:49:26.592Z,-1.20
2023-02-09T17:51:55.499Z,-1.30
2023-02-09T17:54:25.892Z,-1.30
2023-02-09T17:56:54.696Z,-1.40
2023-02-09T17:59:23.942Z,-1.40
2023-02-09T18:01:55.325Z,-1.50
2023-02-09T18:04:27.410Z,-1.50
2023-02-09T18:06:57.847Z,-1.50
2023-02-09T18:09:28.128Z,-1.60
2023-02-09T18:12:01.646Z,-1.60
2023-02-09T18:14:33.116Z,-1.70
2023-02-09T18:17:02.431Z,-1.70
2023-02-09T18:19:31.528Z,-1.70
2023-02-09T18:22:02.017Z,-1.80
2023-02-09T18:24:34.333Z,-1.80
2023-02-09T18:27:03.292Z,-1.90
2023-02-09T18:29:32.252Z,-2.00
2023-02-09T18:32:02.486Z,-2.00
2023-02-09T18:34:31.598Z,-2.10
2023-02-09T18:37:00.399Z,-2.10
2023-02-09T18:39:30.833Z,-2.10
2023-02-09T18:42:00.991Z,-2.10
2023-02-09T18:44:31.477Z,-2.10
2023-02-09T18:47:02.157Z,-2.10
2023-02-09T18:49:31.060Z,-2.10
2023-02-09T18:52:00.944Z,-2.10
2023-02-09T18:54:31.341Z,-2.10
2023-02-09T18:57:01.677Z,-2.10
2023-02-09T18:59:31.356Z,-2.00
2023-02-09T19:02:00.929Z,-2.10
2023-02-09T19:04:29.685Z,-2.10
2023-02-09T19:06:58.442Z,-2.10
2023-02-09T19:09:27.152Z,-2.20
2023-02-09T19:11:55.915Z,-2.30
2023-02-09T19:14:38.244Z,-2.30
2023-02-09T19:17:08.278Z,-2.30
2023-02-09T19:19:38.257Z,-2.40
2023-02-09T19:22:06.948Z,-2.40
2023-02-09T19:24:35.635Z,-2.50
2023-02-09T19:27:06.804Z,-2.50
2023-02-09T19:29:38.836Z,-2.60
2023-02-09T19:32:07.503Z,-2.60
2023-02-09T19:34:39.949Z,-2.60
2023-02-09T19:37:09.739Z,-2.70
2023-02-09T19:39:41.207Z,-2.70
2023-02-09T19:42:10.517Z,-2.80
2023-02-09T19:44:40.734Z,-2.80
2023-02-09T19:47:11.399Z,-2.90
2023-02-09T19:49:40.199Z,-3.00
2023-02-09T19:52:08.955Z,-3.00
2023-02-09T19:54:37.588Z,-3.00
2023-02-09T20:01:20.717Z,-3.10
2023-02-09T20:03:49.699Z,-3.10
2023-02-09T20:06:18.594Z,-3.10
2023-02-09T20:08:47.393Z,-3.20
2023-02-09T20:11:19.611Z,-3.20
2023-02-09T20:13:54.825Z,-3.20
2023-02-09T20:16:27.536Z,-3.20
2023-02-09T20:18:56.891Z,-3.20
2023-02-09T20:21:26.198Z,-3.20
2023-02-09T20:24:21.362Z,-3.20
2023-02-09T20:26:50.180Z,-3.10
2023-02-09T20:29:19.604Z,-3.20
2023-02-09T20:31:50.324Z,-3.20
2023-02-09T20:34:19.441Z,-3.20
2023-02-09T20:36:48.968Z,-3.20
2023-02-09T20:39:19.136Z,-3.20
2023-02-09T20:42:03.457Z,-3.20
2023-02-09T20:45:18.254Z,-3.20
2023-02-09T20:47:48.420Z,-3.10
2023-02-09T20:50:18.067Z,-3.10
2023-02-09T20:52:47.068Z,-3.10
2023-02-09T20:55:15.819Z,-3.20
2023-02-09T20:57:44.642Z,-3.20
2023-02-09T21:00:14.187Z,-3.30
2023-02-09T21:02:50.211Z,-3.40
2023-02-09T21:05:19.023Z,-3.50
2023-02-09T21:07:50.519Z,-3.50
2023-02-09T21:10:19.314Z,-3.60
2023-02-09T21:12:47.913Z,-3.60
2023-02-09T21:15:16.755Z,-3.70
2023-02-09T21:18:17.805Z,-3.70
2023-02-09T21:20:46.985Z,-3.80
2023-02-09T21:23:17.224Z,-3.80
2023-02-09T21:25:46.084Z,-3.80
2023-02-09T21:28:15.242Z,-3.80
2023-02-09T21:30:44.958Z,-3.90
2023-02-09T21:33:20.649Z,-3.90
2023-02-09T21:35:49.440Z,-3.90
2023-02-09T21:38:18.421Z,-3.90
2023-02-09T21:40:47.487Z,-3.90
2023-02-09T21:43:16.304Z,-3.90
2023-02-09T21:45:46.530Z,-3.90
2023-02-09T21:48:15.237Z,-3.90
2023-02-09T21:50:45.300Z,-3.90
2023-02-09T21:53:13.810Z,-3.90
2023-02-09T21:55:42.402Z,-3.90
2023-02-09T21:58:10.988Z,-3.90
2023-02-09T22:00:39.677Z,-3.90
2023-02-09T22:03:08.235Z,-3.90
2023-02-09T22:05:36.869Z,-3.90
2023-02-09T22:08:07.049Z,-3.90
2023-02-09T22:10:35.778Z,-3.90
2023-02-09T22:13:08.564Z,-3.90
2023-02-09T22:15:40.954Z,-3.90
2023-02-09T22:18:09.658Z,-3.90
2023-02-09T22:20:41.176Z,-3.90
2023-02-09T22:23:11.828Z,-4.00
2023-02-09T22:25:40.404Z,-4.00
2023-02-09T22:28:09.017Z,-4.00
2023-02-09T22:30:37.701Z,-4.10
2023-02-09T22:33:06.317Z,-4.10
2023-02-09T22:35:34.987Z,-4.10
2023-02-09T22:38:03.665Z,-4.10
2023-02-09T22:40:33.906Z,-4.10
2023-02-09T22:43:02.569Z,-4.10
2023-02-09T22:45:31.355Z,-4.10
2023-02-09T22:48:00.027Z,-4.20
2023-02-09T22:50:28.880Z,-4.20
2023-02-09T22:52:57.612Z,-4.20
2023-02-09T22:55:26.391Z,-4.30
2023-02-09T22:57:56.510Z,-4.30
2023-02-09T23:00:25.382Z,-4.40
2023-02-09T23:02:54.932Z,-4.40
2023-02-09T23:05:23.728Z,-4.40
2023-02-09T23:07:52.490Z,-4.50
2023-02-09T23:10:22.686Z,-4.50
2023-02-09T23:12:51.424Z,-4.50
2023-02-09T23:15:21.599Z,-4.50
2023-02-09T23:17:50.272Z,-4.60
2023-02-09T23:20:19.287Z,-4.60
2023-02-09T23:22:49.158Z,-4.70
2023-02-09T23:25:17.778Z,-4.70
2023-02-09T23:27:46.476Z,-4.70
2023-02-09T23:30:15.438Z,-4.80
2023-02-09T23:32:45.770Z,-4.80
2023-02-09T23:35:14.598Z,-4.70
2023-02-09T23:37:43.291Z,-4.70
2023-02-09T23:40:12.870Z,-4.80
2023-02-09T23:42:41.414Z,-4.70
2023-02-09T23:45:10.837Z,-4.90
2023-02-09T23:47:39.558Z,-4.80
2023-02-09T23:50:10.070Z,-4.90
2023-02-09T23:52:38.686Z,-4.90
2023-02-09T23:55:08.304Z,-4.90
2023-02-09T23:57:36.881Z,-4.90
